This is the latest recevied weather packets stored in our database for station/object AG1T-20. If no packets are shown the sender has not sent any weather packets the latest 10 day(s).
| Time | Temp. | Humidity | Pressure | Rain* | Wind** | Luminosity | Snow |
|---|---|---|---|---|---|---|---|
| 1777656005 | 13.33° C | 34% | 1023.5 hPa | 0 mm | - | 961 W/m² | - |
| 1777655405 | 12.78° C | 38% | 1023.5 hPa | 0 mm | - | 953 W/m² | - |
| 1777654805 | 12.78° C | 40% | 1023.5 hPa | 0 mm | - | 944 W/m² | - |
| 1777654205 | 12.78° C | 44% | 1023.6 hPa | 0 mm | - | 938 W/m² | - |
| 1777653605 | 12.22° C | 39% | 1023.6 hPa | 0 mm | - | 926 W/m² | - |
| 1777653005 | 11.67° C | 39% | 1023.6 hPa | 0 mm | - | 915 W/m² | - |
| 1777652405 | 11.67° C | 42% | 1023.6 hPa | 0 mm | - | 898 W/m² | - |
| 1777651805 | 11.67° C | 49% | 1023.6 hPa | 0 mm | - | 883 W/m² | - |
| 1777651205 | 11.67° C | 46% | 1023.6 hPa | 0 mm | - | 870 W/m² | - |
| 1777650605 | 11.67° C | 41% | 1023.8 hPa | 0 mm | - | 851 W/m² | - |
| 1777650005 | 11.11° C | 38% | 1023.8 hPa | 0 mm | - | 831 W/m² | - |
| 1777649405 | 10.56° C | 39% | 1023.8 hPa | 0 mm | - | 809 W/m² | - |
| 1777648805 | 10.56° C | 41% | 1023.8 hPa | 0 mm | - | 783 W/m² | - |
| 1777648205 | 10° C | 45% | 1023.8 hPa | 0 mm | - | 759 W/m² | - |
| 1777647605 | 10° C | 47% | 1023.8 hPa | 0 mm | - | 732 W/m² | - |
| 1777647005 | 8.89° C | 50% | 1023.6 hPa | 0 mm | - | 698 W/m² | - |
| 1777646405 | 8.33° C | 56% | 1023.6 hPa | 0 mm | - | 666 W/m² | - |
| 1777645805 | 7.78° C | 56% | 1023.6 hPa | 0 mm | - | 637 W/m² | - |
| 1777645205 | 7.22° C | 59% | 1023.6 hPa | 0 mm | - | 604 W/m² | - |
| 1777644605 | 6.67° C | 61% | 1023.6 hPa | 0 mm | - | 568 W/m² | - |
| 1777644005 | 6.11° C | 58% | 1023.6 hPa | 0 mm | - | 526 W/m² | - |
| 1777643405 | 5.56° C | 61% | 1022.8 hPa | 0 mm | - | 487 W/m² | - |
| 1777642805 | 4.44° C | 62% | 1022.8 hPa | 0 mm | - | 447 W/m² | - |
| 1777642205 | 4.44° C | 62% | 1022.8 hPa | 0 mm | - | 403 W/m² | - |
| 1777641605 | 3.33° C | 67% | 1022.8 hPa | 0 mm | - | 347 W/m² | - |
* Rain latest hour (hover to see other rain measurements)
** Current wind speed in m/s (hover to see current wind gust speed)